Time;durP1;ratioP1;P1;durP2;ratioP2;P2;SDS_P1;SDS_P2;PMS_P1;PMS_P2;Temp;Humidity;BMP_temperature;BMP_pressure;BME280_temperature;BME280_humidity;BME280_pressure;Samples;Min_cycle;Max_cycle;Signal;HPM_P1;HPM_P2
2021/12/01 00:01:59;;;;;;;6.40;2.77;;;16.60;56.10;;;;;;4952642;28;20545;-82
2021/12/01 00:04:27;;;;;;;3.97;2.83;;;16.60;56.20;;;;;;4953594;28;20451;-82
2021/12/01 00:06:55;;;;;;;4.53;2.60;;;16.60;56.20;;;;;;4953110;28;20455;-82
2021/12/01 00:09:24;;;;;;;3.77;2.90;;;16.60;56.20;;;;;;4952420;28;20546;-82
2021/12/01 00:11:52;;;;;;;4.50;2.70;;;16.60;56.20;;;;;;4951906;28;20587;-83
2021/12/01 00:14:21;;;;;;;7.60;2.60;;;16.60;56.20;;;;;;4951500;28;20554;-84
2021/12/01 00:16:49;;;;;;;5.77;2.90;;;16.60;56.20;;;;;;4952056;28;20491;-83
2021/12/01 00:19:17;;;;;;;2.90;2.47;;;16.60;56.30;;;;;;4952124;28;20451;-82
2021/12/01 00:21:45;;;;;;;6.83;2.70;;;16.60;56.20;;;;;;4951103;28;20487;-82
2021/12/01 00:24:13;;;;;;;4.93;2.97;;;16.60;56.30;;;;;;4945819;28;20555;-83
2021/12/01 00:26:42;;;;;;;3.53;2.83;;;16.60;56.30;;;;;;4949829;28;20554;-82
2021/12/01 00:29:10;;;;;;;4.80;2.70;;;16.60;56.40;;;;;;4951690;28;20546;-81
2021/12/01 00:31:38;;;;;;;3.53;2.43;;;16.60;56.20;;;;;;4952209;28;20539;-81
2021/12/01 00:34:07;;;;;;;4.87;2.77;;;16.60;56.20;;;;;;4959354;28;20514;-80
2021/12/01 00:36:34;;;;;;;3.00;2.70;;;16.60;56.20;;;;;;4960425;28;20490;-81
2021/12/01 00:39:02;;;;;;;2.97;2.67;;;16.60;56.40;;;;;;4959513;28;20467;-80
2021/12/01 00:41:31;;;;;;;3.60;3.13;;;16.60;56.40;;;;;;4953236;28;20515;-82
2021/12/01 00:44:01;;;;;;;3.30;2.60;;;16.60;56.40;;;;;;4951464;28;20532;-81
2021/12/01 00:46:38;;;;;;;3.07;2.70;;;16.60;56.40;;;;;;4951626;28;20443;-82
2021/12/01 00:49:07;;;;;;;3.77;2.80;;;16.60;56.40;;;;;;4951949;28;20466;-82
2021/12/01 00:51:35;;;;;;;3.27;2.50;;;16.60;56.40;;;;;;4953287;28;20561;-81
2021/12/01 00:54:03;;;;;;;3.90;2.60;;;16.60;57.00;;;;;;4952437;28;20506;-81
2021/12/01 00:56:31;;;;;;;3.30;2.90;;;16.60;56.30;;;;;;4953806;28;20478;-82
2021/12/01 00:59:00;;;;;;;2.60;2.40;;;16.60;56.30;;;;;;4950496;28;20495;-82
2021/12/01 01:01:29;;;;;;;3.43;3.13;;;16.60;56.40;;;;;;4952866;28;20451;-83
2021/12/01 01:03:57;;;;;;;4.90;3.17;;;16.60;56.40;;;;;;4952027;28;20514;-82
2021/12/01 01:06:25;;;;;;;2.93;2.73;;;16.60;56.40;;;;;;4952053;28;20949;-82
2021/12/01 01:08:53;;;;;;;3.17;2.87;;;16.60;56.40;;;;;;4952163;28;20466;-81
2021/12/01 01:19:46;;;;;;;3.17;2.93;;;16.60;56.50;;;;;;4950439;29;20458;-82
2021/12/01 01:22:15;;;;;;;3.27;2.70;;;16.60;56.60;;;;;;4955442;28;21004;-81
2021/12/01 01:24:43;;;;;;;2.80;2.60;;;16.60;56.50;;;;;;4954469;28;20451;-81
2021/12/01 01:27:11;;;;;;;2.97;2.70;;;16.60;56.60;;;;;;4955381;29;20547;-81
2021/12/01 01:29:41;;;;;;;5.23;2.53;;;16.60;56.60;;;;;;4954819;28;20536;-82
2021/12/01 01:32:09;;;;;;;3.03;2.60;;;16.60;56.50;;;;;;4955515;28;20514;-82
2021/12/01 01:34:37;;;;;;;3.13;2.80;;;16.60;56.60;;;;;;4954030;29;20487;-82
2021/12/01 01:37:05;;;;;;;3.53;2.67;;;16.60;56.70;;;;;;4955736;29;20482;-81
2021/12/01 01:39:33;;;;;;;4.93;2.40;;;16.60;56.60;;;;;;4955280;28;20533;-81
2021/12/01 01:42:01;;;;;;;2.73;2.53;;;16.60;56.60;;;;;;4955497;28;20521;-82
2021/12/01 01:44:30;;;;;;;2.33;2.23;;;16.60;56.60;;;;;;4953432;28;20501;-82
2021/12/01 01:47:00;;;;;;;2.90;2.70;;;16.70;56.60;;;;;;4955206;28;20478;-82
2021/12/01 01:49:41;;;;;;;2.80;2.60;;;16.70;56.70;;;;;;4955316;29;20451;-83
2021/12/01 01:52:09;;;;;;;2.70;2.50;;;16.70;56.70;;;;;;4956730;28;20918;-83
2021/12/01 01:54:37;;;;;;;2.80;2.60;;;16.70;56.60;;;;;;4955313;29;20502;-83
2021/12/01 01:57:06;;;;;;;2.40;2.20;;;16.60;56.60;;;;;;4957334;28;20542;-84
2021/12/01 01:59:34;;;;;;;4.90;2.30;;;16.60;56.60;;;;;;4955566;28;20884;-82
2021/12/01 02:02:04;;;;;;;2.30;2.20;;;16.70;56.70;;;;;;4956007;28;20511;-82
2021/12/01 02:04:34;;;;;;;3.00;2.70;;;16.70;56.80;;;;;;4952180;28;20539;-82
2021/12/01 02:07:02;;;;;;;2.40;2.20;;;16.70;56.80;;;;;;4955013;29;20548;-82
2021/12/01 02:09:30;;;;;;;2.17;2.07;;;16.70;56.70;;;;;;4954944;29;20530;-82
2021/12/01 02:11:59;;;;;;;2.63;2.43;;;16.70;56.80;;;;;;4955270;28;20475;-83
2021/12/01 02:14:28;;;;;;;3.00;2.57;;;16.70;56.70;;;;;;4954564;28;20494;-82
2021/12/01 02:16:56;;;;;;;1.97;1.87;;;16.80;56.90;;;;;;4954431;29;20475;-83
2021/12/01 02:19:26;;;;;;;2.43;2.27;;;16.70;56.80;;;;;;4955050;29;20506;-82
2021/12/01 02:21:55;;;;;;;2.23;2.00;;;16.80;57.00;;;;;;4955856;28;20458;-82
2021/12/01 02:24:24;;;;;;;2.40;2.20;;;16.80;56.90;;;;;;4956340;29;20494;-83
2021/12/01 02:26:52;;;;;;;2.57;2.37;;;16.80;57.00;;;;;;4956479;28;20467;-82
2021/12/01 02:29:23;;;;;;;3.77;2.43;;;16.80;56.90;;;;;;4959179;28;20506;-83
2021/12/01 02:31:51;;;;;;;2.17;2.07;;;16.80;57.00;;;;;;4959191;28;20466;-83
2021/12/01 02:34:20;;;;;;;2.17;1.97;;;16.80;57.60;;;;;;4959235;29;20470;-84
2021/12/01 02:36:49;;;;;;;2.10;2.00;;;16.80;56.90;;;;;;4957207;28;20993;-83
2021/12/01 02:39:19;;;;;;;2.77;2.10;;;16.80;57.00;;;;;;4956063;28;20498;-83
2021/12/01 02:41:51;;;;;;;2.30;2.20;;;16.80;57.10;;;;;;4959332;29;20526;-83
2021/12/01 02:44:20;;;;;;;2.40;2.20;;;16.80;57.00;;;;;;4956762;28;20463;-83
2021/12/01 02:46:49;;;;;;;2.60;2.50;;;16.90;57.10;;;;;;4959577;28;20485;-84
2021/12/01 02:49:19;;;;;;;2.90;2.70;;;16.80;57.10;;;;;;4959302;29;20467;-83
2021/12/01 02:51:48;;;;;;;2.90;2.70;;;16.90;57.10;;;;;;4959157;29;20428;-83
2021/12/01 02:54:18;;;;;;;3.50;2.80;;;16.90;57.10;;;;;;4957769;28;20490;-83
2021/12/01 02:56:47;;;;;;;2.73;2.63;;;16.90;57.10;;;;;;4959110;28;20889;-82
2021/12/01 02:59:15;;;;;;;2.83;2.63;;;16.90;57.20;;;;;;4960135;29;20435;-82
2021/12/01 03:01:44;;;;;;;3.03;2.83;;;16.90;57.10;;;;;;4959654;29;20458;-83
2021/12/01 03:04:13;;;;;;;2.40;2.30;;;16.90;57.10;;;;;;4958764;29;20435;-83
2021/12/01 03:06:41;;;;;;;3.27;3.07;;;17.00;57.20;;;;;;4959368;29;20472;-83
2021/12/01 03:09:09;;;;;;;3.03;2.83;;;17.00;57.10;;;;;;4956854;29;20475;-82
2021/12/01 03:11:38;;;;;;;3.90;2.97;;;17.00;57.40;;;;;;4958066;28;20535;-83
2021/12/01 03:14:10;;;;;;;4.10;3.47;;;17.00;57.30;;;;;;4958936;28;20570;-83
2021/12/01 03:16:38;;;;;;;2.97;2.77;;;17.00;57.30;;;;;;4958332;28;20455;-83
2021/12/01 03:19:07;;;;;;;3.10;2.90;;;17.00;57.40;;;;;;4960272;28;20561;-83
2021/12/01 03:21:36;;;;;;;3.60;3.30;;;17.00;57.30;;;;;;4963559;28;20455;-83
2021/12/01 03:24:05;;;;;;;4.17;2.97;;;17.10;57.40;;;;;;4960720;28;20466;-82
2021/12/01 03:26:34;;;;;;;4.33;3.90;;;17.10;57.40;;;;;;4959342;28;20506;-83
2021/12/01 03:29:04;;;;;;;5.23;3.57;;;17.10;57.40;;;;;;4959458;28;20442;-83
2021/12/01 03:31:32;;;;;;;3.93;3.60;;;17.10;57.40;;;;;;4963372;28;20448;-83
2021/12/01 03:34:00;;;;;;;3.83;3.53;;;17.10;57.40;;;;;;4962328;28;20520;-84
2021/12/01 03:36:29;;;;;;;3.40;3.20;;;17.10;57.50;;;;;;4963502;28;20816;-82
2021/12/01 03:38:57;;;;;;;4.30;4.00;;;17.10;57.50;;;;;;4954535;28;20562;-83
2021/12/01 03:41:25;;;;;;;3.80;3.50;;;17.10;57.50;;;;;;4956382;28;20581;-83
2021/12/01 03:43:53;;;;;;;4.77;4.37;;;17.20;57.50;;;;;;4957886;28;20499;-83
2021/12/01 03:46:23;;;;;;;4.03;3.70;;;17.20;57.40;;;;;;4958431;28;20518;-83
2021/12/01 03:48:51;;;;;;;4.20;3.80;;;17.20;57.60;;;;;;4958558;28;20479;-83
2021/12/01 03:51:22;;;;;;;4.40;4.00;;;17.20;57.60;;;;;;4958974;28;20441;-82
2021/12/01 03:53:50;;;;;;;3.80;3.50;;;17.20;57.70;;;;;;4958158;28;20514;-83
2021/12/01 03:56:19;;;;;;;3.63;3.43;;;17.30;57.60;;;;;;4958552;28;20510;-82
2021/12/01 03:58:48;;;;;;;3.80;3.60;;;17.30;57.80;;;;;;4956785;28;20491;-83
2021/12/01 04:01:16;;;;;;;3.83;3.53;;;17.30;57.80;;;;;;4958639;28;20486;-83
2021/12/01 04:03:46;;;;;;;3.83;3.53;;;17.30;57.80;;;;;;4958499;28;20470;-83
2021/12/01 04:06:14;;;;;;;3.80;3.53;;;17.30;57.70;;;;;;4958729;28;20481;-83
2021/12/01 04:08:42;;;;;;;3.67;3.40;;;17.30;57.80;;;;;;4958730;28;20482;-83
2021/12/01 04:11:10;;;;;;;3.87;3.53;;;17.30;57.80;;;;;;4958441;29;20455;-82
2021/12/01 04:13:39;;;;;;;3.67;3.37;;;17.30;57.90;;;;;;4958508;28;20505;-82
2021/12/01 04:16:07;;;;;;;3.10;3.00;;;17.30;57.90;;;;;;4957430;28;20555;-83
2021/12/01 04:18:35;;;;;;;4.80;2.80;;;17.30;58.40;;;;;;4957622;28;20447;-82
2021/12/01 04:21:04;;;;;;;2.80;2.60;;;17.30;58.00;;;;;;4958654;28;20466;-82
2021/12/01 04:23:34;;;;;;;3.50;3.00;;;17.30;58.00;;;;;;4958271;28;20455;-82
2021/12/01 04:26:02;;;;;;;3.00;2.80;;;17.30;58.10;;;;;;4958352;29;20533;-83
2021/12/01 04:28:31;;;;;;;3.20;2.50;;;17.40;58.10;;;;;;4958460;28;20487;-82
2021/12/01 04:30:59;;;;;;;2.60;2.50;;;17.40;58.20;;;;;;4958071;28;20431;-83
2021/12/01 04:33:27;;;;;;;2.53;2.43;;;17.40;58.20;;;;;;4957026;28;20501;-84
2021/12/01 04:35:56;;;;;;;2.47;2.33;;;17.40;58.20;;;;;;4958406;28;20463;-82
2021/12/01 04:38:25;;;;;;;2.23;2.13;;;17.40;58.30;;;;;;4958578;29;20501;-84
2021/12/01 04:40:53;;;;;;;2.60;2.40;;;17.40;58.20;;;;;;4958234;29;20486;-83
2021/12/01 04:43:21;;;;;;;2.07;1.97;;;17.40;58.30;;;;;;4958372;28;20491;-83
2021/12/01 04:45:58;;;;;;;1.87;1.77;;;17.40;58.20;;;;;;4958095;29;20489;-83
2021/12/01 04:48:26;;;;;;;2.10;2.00;;;17.40;58.30;;;;;;4956968;28;20529;-85
2021/12/01 04:50:54;;;;;;;1.90;1.80;;;17.40;58.50;;;;;;4956183;29;20506;-83
2021/12/01 04:53:22;;;;;;;1.60;1.60;;;17.40;58.50;;;;;;4958244;28;20570;-83
2021/12/01 04:55:52;;;;;;;1.90;1.80;;;17.40;58.50;;;;;;4959553;28;20436;-83
2021/12/01 04:58:21;;;;;;;1.50;1.40;;;17.40;58.60;;;;;;4962365;28;20458;-83
2021/12/01 05:00:49;;;;;;;1.60;1.60;;;17.50;58.40;;;;;;4958603;28;20526;-83
2021/12/01 05:03:18;;;;;;;1.80;1.70;;;17.50;58.50;;;;;;4961350;28;20451;-83
2021/12/01 05:05:51;;;;;;;1.50;1.40;;;17.40;58.60;;;;;;4959052;28;20466;-83
2021/12/01 05:08:20;;;;;;;1.83;1.53;;;17.40;58.60;;;;;;4960927;29;20526;-83
2021/12/01 05:10:48;;;;;;;1.53;1.43;;;17.50;58.70;;;;;;4961161;28;20997;-82
2021/12/01 05:13:17;;;;;;;1.40;1.30;;;17.40;58.60;;;;;;4960694;28;20490;-83
2021/12/01 05:15:46;;;;;;;1.40;1.30;;;17.50;58.70;;;;;;4960407;29;20435;-81
2021/12/01 05:18:15;;;;;;;1.20;1.20;;;17.40;58.70;;;;;;4962179;28;20529;-81
2021/12/01 05:20:43;;;;;;;2.10;1.37;;;17.40;58.80;;;;;;4962180;28;20573;-81
2021/12/01 05:23:15;;;;;;;1.27;1.27;;;17.50;58.80;;;;;;4960668;28;20474;-81
2021/12/01 05:25:44;;;;;;;1.30;1.30;;;17.50;58.90;;;;;;4962282;28;20447;-81
2021/12/01 05:28:12;;;;;;;1.30;1.30;;;17.50;58.90;;;;;;4962080;28;20477;-81
2021/12/01 05:30:42;;;;;;;1.20;1.20;;;17.50;58.80;;;;;;4962046;28;20458;-81
2021/12/01 05:33:10;;;;;;;1.13;1.13;;;17.40;58.90;;;;;;4961796;28;21032;-82
2021/12/01 05:35:43;;;;;;;1.17;1.10;;;17.50;58.90;;;;;;4962190;29;20456;-81
2021/12/01 05:38:11;;;;;;;1.17;1.17;;;17.50;59.00;;;;;;4961164;28;20520;-81
2021/12/01 05:40:39;;;;;;;1.00;1.00;;;17.40;58.80;;;;;;4962006;28;20555;-81
2021/12/01 05:43:07;;;;;;;1.10;1.10;;;17.50;58.90;;;;;;4962087;28;20487;-81
2021/12/01 05:45:36;;;;;;;1.10;1.10;;;17.50;58.90;;;;;;4962227;29;20523;-81
2021/12/01 05:48:05;;;;;;;1.03;1.03;;;17.50;59.00;;;;;;4961907;28;20454;-81
2021/12/01 05:50:33;;;;;;;1.27;1.17;;;17.50;59.10;;;;;;4961908;28;20477;-81
2021/12/01 05:53:01;;;;;;;1.10;1.10;;;17.50;58.80;;;;;;4961796;28;20471;-81
2021/12/01 05:55:30;;;;;;;1.03;1.03;;;17.50;58.90;;;;;;4962107;29;20506;-81
2021/12/01 05:57:57;;;;;;;1.30;1.30;;;17.50;59.00;;;;;;4959094;28;20525;-81
2021/12/01 06:00:26;;;;;;;1.30;1.10;;;17.50;59.00;;;;;;4961413;28;20554;-81
2021/12/01 06:02:54;;;;;;;1.93;1.13;;;17.50;59.10;;;;;;4961580;28;20547;-81
2021/12/01 06:05:23;;;;;;;1.10;1.10;;;17.50;59.20;;;;;;4958254;28;20515;-82
2021/12/01 06:07:52;;;;;;;1.33;1.07;;;17.50;59.20;;;;;;4960154;28;20938;-82
2021/12/01 06:10:20;;;;;;;1.20;1.20;;;17.50;58.90;;;;;;4961828;28;20451;-82
2021/12/01 06:12:48;;;;;;;1.10;1.10;;;17.50;59.00;;;;;;4958887;28;20542;-82
2021/12/01 06:15:17;;;;;;;1.60;1.60;;;17.50;59.60;;;;;;4961369;28;20471;-82
2021/12/01 06:17:45;;;;;;;2.00;0.90;;;17.50;59.20;;;;;;4961540;28;20470;-82
2021/12/01 06:20:14;;;;;;;2.03;1.20;;;17.50;59.10;;;;;;4960364;28;20475;-82
2021/12/01 06:22:44;;;;;;;1.10;1.10;;;17.50;59.20;;;;;;4960051;28;20471;-82
2021/12/01 06:25:12;;;;;;;1.17;1.17;;;17.50;59.20;;;;;;4961007;28;20500;-82
2021/12/01 06:27:42;;;;;;;1.20;1.20;;;17.50;59.20;;;;;;4960618;28;20523;-81
2021/12/01 06:30:11;;;;;;;1.30;1.20;;;17.50;59.30;;;;;;4956847;28;20460;-81
2021/12/01 06:32:39;;;;;;;1.07;1.00;;;17.50;59.20;;;;;;4960200;28;20463;-81
2021/12/01 06:35:08;;;;;;;2.40;1.20;;;17.50;59.30;;;;;;4960939;28;20478;-81
2021/12/01 06:37:36;;;;;;;1.10;1.10;;;17.40;59.10;;;;;;4960965;28;20428;-81
2021/12/01 06:40:07;;;;;;;1.40;1.40;;;17.50;59.20;;;;;;4960798;28;20491;-81
2021/12/01 06:42:35;;;;;;;1.10;1.10;;;17.50;59.10;;;;;;4959968;28;20548;-82
2021/12/01 06:45:04;;;;;;;1.33;1.23;;;17.40;59.00;;;;;;4961088;28;20460;-82
2021/12/01 06:47:32;;;;;;;0.90;0.90;;;17.50;59.30;;;;;;4956273;28;20457;-83
2021/12/01 06:50:03;;;;;;;2.23;1.00;;;17.40;59.30;;;;;;4964720;28;20466;-83
2021/12/01 06:52:31;;;;;;;1.00;1.00;;;17.40;59.10;;;;;;4969221;28;20963;-82
2021/12/01 06:54:59;;;;;;;0.83;0.83;;;17.40;59.10;;;;;;4966616;29;20477;-82
2021/12/01 06:57:29;;;;;;;1.30;1.27;;;17.40;59.20;;;;;;4962676;28;20471;-81
2021/12/01 06:59:57;;;;;;;1.20;0.90;;;17.50;59.20;;;;;;4960015;29;20443;-82
2021/12/01 07:02:25;;;;;;;1.00;0.90;;;17.40;59.10;;;;;;4960069;28;20498;-81
2021/12/01 07:04:53;;;;;;;0.90;0.90;;;17.40;59.20;;;;;;4958449;28;20471;-81
2021/12/01 07:07:21;;;;;;;0.90;0.90;;;17.40;59.20;;;;;;4959824;29;20442;-81
2021/12/01 07:09:51;;;;;;;0.90;0.90;;;17.40;59.20;;;;;;4960028;28;20523;-81
2021/12/01 07:12:19;;;;;;;1.00;1.00;;;17.40;59.20;;;;;;4959386;28;20880;-81
2021/12/01 07:14:48;;;;;;;1.10;1.00;;;17.40;59.20;;;;;;4960092;28;20538;-81
2021/12/01 07:17:16;;;;;;;1.07;1.07;;;17.40;59.20;;;;;;4959954;28;20442;-81
2021/12/01 07:19:44;;;;;;;0.80;0.80;;;17.30;59.10;;;;;;4954387;28;20560;-81
2021/12/01 07:22:12;;;;;;;0.97;0.97;;;17.40;59.20;;;;;;4957221;28;20503;-81
2021/12/01 07:24:41;;;;;;;1.13;1.13;;;17.40;59.30;;;;;;4959325;28;20467;-81
2021/12/01 07:27:13;;;;;;;0.80;0.80;;;17.40;59.00;;;;;;4959987;28;20518;-81
2021/12/01 07:29:42;;;;;;;1.43;0.90;;;17.40;59.00;;;;;;4959740;29;20510;-81
2021/12/01 07:32:11;;;;;;;1.13;1.03;;;17.40;59.00;;;;;;4959657;28;20463;-81
2021/12/01 07:34:42;;;;;;;0.80;0.80;;;17.40;59.00;;;;;;4960404;28;20530;-81
2021/12/01 07:37:11;;;;;;;1.30;1.03;;;17.40;59.10;;;;;;4957094;28;20965;-81
2021/12/01 07:39:39;;;;;;;0.77;0.77;;;17.30;59.10;;;;;;4956821;29;20451;-81
2021/12/01 07:42:07;;;;;;;0.97;0.97;;;17.30;59.10;;;;;;4959214;28;20471;-81
2021/12/01 07:44:35;;;;;;;1.20;1.20;;;17.30;59.10;;;;;;4960237;28;20541;-81
2021/12/01 07:47:03;;;;;;;0.90;0.90;;;17.30;59.10;;;;;;4959710;29;20463;-82
2021/12/01 07:49:33;;;;;;;1.37;1.07;;;17.40;59.20;;;;;;4959523;28;20510;-82
2021/12/01 07:52:06;;;;;;;1.20;1.20;;;17.40;59.20;;;;;;4959068;28;20469;-82
2021/12/01 07:54:34;;;;;;;1.20;1.20;;;17.40;59.20;;;;;;4957369;28;20545;-81
2021/12/01 07:57:02;;;;;;;2.50;1.00;;;17.40;58.90;;;;;;4959568;28;20494;-81
2021/12/01 07:59:30;;;;;;;1.00;0.90;;;17.40;58.90;;;;;;4959686;29;20446;-82
2021/12/01 08:01:58;;;;;;;0.93;0.93;;;17.30;58.80;;;;;;4958762;28;20483;-82
2021/12/01 08:04:27;;;;;;;1.07;1.07;;;17.40;59.00;;;;;;4958828;28;20974;-81
2021/12/01 08:06:56;;;;;;;1.27;1.10;;;17.30;58.90;;;;;;4959661;28;20451;-82
2021/12/01 08:09:25;;;;;;;1.10;1.10;;;17.40;59.20;;;;;;4958344;28;20458;-82
2021/12/01 08:11:53;;;;;;;1.97;1.03;;;17.40;58.80;;;;;;4958725;28;20538;-82
2021/12/01 08:14:22;;;;;;;1.33;0.90;;;17.40;58.90;;;;;;4958571;28;20436;-82
2021/12/01 08:16:50;;;;;;;0.90;0.90;;;17.40;58.80;;;;;;4959028;28;20908;-82
2021/12/01 08:19:19;;;;;;;0.90;0.90;;;17.40;58.80;;;;;;4958706;28;20498;-82
2021/12/01 08:21:49;;;;;;;2.33;1.00;;;17.40;59.00;;;;;;4959462;28;20498;-82
2021/12/01 08:24:19;;;;;;;0.90;0.90;;;17.30;58.70;;;;;;4959026;29;20435;-82
2021/12/01 08:26:47;;;;;;;1.00;1.00;;;17.40;58.90;;;;;;4953836;28;20864;-81
2021/12/01 08:29:16;;;;;;;2.00;0.80;;;17.30;58.70;;;;;;4950004;28;20466;-81
2021/12/01 08:31:44;;;;;;;1.77;1.23;;;17.40;58.90;;;;;;4961635;28;20474;-82
2021/12/01 08:34:13;;;;;;;1.10;1.10;;;17.40;58.60;;;;;;4963064;29;20465;-81
2021/12/01 08:36:41;;;;;;;1.30;1.20;;;17.40;58.70;;;;;;4962496;28;20569;-82
2021/12/01 08:39:09;;;;;;;1.10;1.10;;;17.40;58.70;;;;;;4962954;28;20439;-81
2021/12/01 08:41:38;;;;;;;0.90;0.90;;;17.40;58.70;;;;;;4962359;29;20445;-81
2021/12/01 08:44:08;;;;;;;1.20;1.20;;;17.40;58.80;;;;;;4958601;28;20485;-82
2021/12/01 08:46:36;;;;;;;1.00;1.00;;;17.40;58.70;;;;;;4960342;28;20443;-81
2021/12/01 08:49:04;;;;;;;1.23;1.23;;;17.40;58.60;;;;;;4962399;28;20558;-81
2021/12/01 08:51:33;;;;;;;1.30;1.20;;;17.40;58.60;;;;;;4961939;29;20431;-81
2021/12/01 08:54:01;;;;;;;1.10;1.00;;;17.40;58.50;;;;;;4962271;28;20463;-81
2021/12/01 08:56:29;;;;;;;1.03;1.03;;;17.40;58.60;;;;;;4961560;29;20470;-81
2021/12/01 08:58:58;;;;;;;0.93;0.93;;;17.50;58.80;;;;;;4961400;28;20522;-81
2021/12/01 09:01:27;;;;;;;0.97;0.97;;;17.40;58.50;;;;;;4962010;29;20474;-82
2021/12/01 09:03:58;;;;;;;1.17;0.90;;;17.40;58.60;;;;;;4962761;28;20446;-81
2021/12/01 09:06:26;;;;;;;0.90;0.90;;;17.40;58.50;;;;;;4962724;28;20443;-82
2021/12/01 09:08:54;;;;;;;1.27;1.27;;;17.40;58.50;;;;;;4957006;28;20542;-82
2021/12/01 09:11:22;;;;;;;1.10;1.10;;;17.40;58.50;;;;;;4959657;28;20446;-81
2021/12/01 09:13:50;;;;;;;0.70;0.70;;;17.40;58.60;;;;;;4960511;28;20487;-82
2021/12/01 09:16:23;;;;;;;1.27;0.90;;;17.50;58.50;;;;;;4959631;28;20466;-81
2021/12/01 09:18:51;;;;;;;0.90;0.90;;;17.40;58.30;;;;;;4959248;28;20529;-81
2021/12/01 09:21:21;;;;;;;0.80;0.80;;;17.40;58.50;;;;;;4959148;28;20474;-81
2021/12/01 09:23:49;;;;;;;1.27;1.07;;;17.40;58.40;;;;;;4959859;28;20474;-81
2021/12/01 09:26:17;;;;;;;0.90;0.90;;;17.50;58.50;;;;;;4959376;28;20470;-81
2021/12/01 09:28:45;;;;;;;0.93;0.93;;;17.50;59.10;;;;;;4959586;29;20462;-81
2021/12/01 09:31:13;;;;;;;1.10;1.10;;;17.50;58.50;;;;;;4959211;28;20458;-82
2021/12/01 09:33:43;;;;;;;1.10;1.10;;;17.40;58.50;;;;;;4959486;28;20517;-81
2021/12/01 09:36:12;;;;;;;1.23;0.90;;;17.50;58.50;;;;;;4960234;28;20471;-81
2021/12/01 09:38:40;;;;;;;0.80;0.80;;;17.50;58.40;;;;;;4959688;28;20467;-81
2021/12/01 09:41:08;;;;;;;1.43;1.10;;;17.50;58.20;;;;;;4958873;28;20511;-81
2021/12/01 09:43:36;;;;;;;0.87;0.80;;;17.50;58.30;;;;;;4958539;28;20533;-81
2021/12/01 09:46:06;;;;;;;1.00;1.00;;;17.50;58.40;;;;;;4960067;29;20447;-82
2021/12/01 09:48:34;;;;;;;1.10;1.00;;;17.50;58.40;;;;;;4956885;28;20462;-81
2021/12/01 09:51:14;;;;;;;1.10;1.10;;;17.60;58.50;;;;;;4959712;28;20498;-82
2021/12/01 09:53:42;;;;;;;1.00;1.00;;;17.50;58.20;;;;;;4959281;28;20501;-81
2021/12/01 09:56:10;;;;;;;1.00;1.00;;;17.60;58.30;;;;;;4959222;28;20526;-81
2021/12/01 09:58:38;;;;;;;1.47;0.80;;;17.60;58.20;;;;;;4958971;28;20482;-82
2021/12/01 10:01:08;;;;;;;1.63;1.00;;;17.50;58.30;;;;;;4958517;28;20443;-80
2021/12/01 10:03:36;;;;;;;1.00;0.90;;;17.60;58.40;;;;;;4960029;28;20455;-81
2021/12/01 10:06:10;;;;;;;1.10;1.00;;;17.60;58.40;;;;;;4957635;28;20452;-81
2021/12/01 10:08:41;;;;;;;0.90;0.90;;;17.60;58.40;;;;;;4959823;29;20462;-80
2021/12/01 10:11:11;;;;;;;1.00;1.00;;;17.60;58.30;;;;;;4956962;29;20450;-83
2021/12/01 10:13:40;;;;;;;0.97;0.97;;;17.70;58.40;;;;;;4954798;28;20534;-80
2021/12/01 10:16:09;;;;;;;2.10;1.10;;;17.70;58.20;;;;;;4957117;29;20509;-81
2021/12/01 10:18:39;;;;;;;1.07;1.07;;;17.70;58.20;;;;;;4958731;28;20443;-81
2021/12/01 10:21:10;;;;;;;1.00;1.00;;;17.70;58.10;;;;;;4958600;28;20463;-81
2021/12/01 10:23:43;;;;;;;0.93;0.93;;;17.70;58.20;;;;;;4956869;28;20506;-81
2021/12/01 10:26:14;;;;;;;1.20;1.00;;;17.60;58.20;;;;;;4958471;28;20534;-81
2021/12/01 10:28:43;;;;;;;2.50;0.90;;;17.60;58.40;;;;;;4951114;28;20486;-80
2021/12/01 10:31:12;;;;;;;2.07;1.00;;;17.60;58.30;;;;;;4952808;28;20470;-81
2021/12/01 10:33:40;;;;;;;1.00;1.00;;;17.60;58.30;;;;;;4952284;28;20470;-82
2021/12/01 10:36:09;;;;;;;0.80;0.80;;;17.60;58.30;;;;;;4953734;28;20483;-81
2021/12/01 10:38:38;;;;;;;0.87;0.87;;;17.60;58.40;;;;;;4952015;28;20498;-81
2021/12/01 10:41:09;;;;;;;1.20;1.20;;;17.60;58.40;;;;;;4953417;29;20498;-82
2021/12/01 10:43:42;;;;;;;1.07;0.97;;;17.70;58.40;;;;;;4952379;28;20510;-83
2021/12/01 10:46:11;;;;;;;1.50;0.80;;;17.70;58.50;;;;;;4953420;28;20451;-84
2021/12/01 10:48:41;;;;;;;1.00;1.00;;;17.70;58.40;;;;;;4953101;28;20470;-83
2021/12/01 10:51:10;;;;;;;1.00;1.00;;;17.70;58.40;;;;;;4954067;29;20493;-83
2021/12/01 10:53:39;;;;;;;1.57;1.03;;;17.70;58.50;;;;;;4954557;28;20503;-83
2021/12/01 10:56:08;;;;;;;2.83;1.30;;;17.80;58.40;;;;;;4955805;28;20530;-82
2021/12/01 10:58:38;;;;;;;1.00;1.00;;;17.80;58.40;;;;;;4954740;28;20563;-82
2021/12/01 11:01:17;;;;;;;1.00;0.93;;;17.80;58.20;;;;;;4954424;28;20514;-82
2021/12/01 11:03:46;;;;;;;0.90;0.90;;;17.90;58.40;;;;;;4954776;28;20475;-82
2021/12/01 11:06:19;;;;;;;1.33;0.80;;;17.90;58.20;;;;;;4954384;28;20506;-82
2021/12/01 11:08:47;;;;;;;2.13;1.00;;;17.90;58.20;;;;;;4954737;28;20483;-82
2021/12/01 11:11:18;;;;;;;1.67;1.10;;;18.00;58.20;;;;;;4953917;29;20479;-82
2021/12/01 11:14:11;;;;;;;0.70;0.70;;;18.00;58.00;;;;;;4954655;28;20819;-81
2021/12/01 11:16:40;;;;;;;1.17;1.07;;;18.00;57.90;;;;;;4953629;28;22371;-82
2021/12/01 11:19:09;;;;;;;0.80;0.80;;;18.00;57.90;;;;;;4953403;28;20462;-82
2021/12/01 11:21:37;;;;;;;1.00;0.90;;;18.00;58.00;;;;;;4955505;28;20535;-82
2021/12/01 11:24:06;;;;;;;1.20;1.10;;;18.10;58.00;;;;;;4953799;28;20592;-82
2021/12/01 11:26:36;;;;;;;1.20;1.00;;;18.10;57.80;;;;;;4955905;28;20442;-81
2021/12/01 11:29:18;;;;;;;0.80;0.80;;;18.10;57.80;;;;;;4954813;28;20466;-82
2021/12/01 11:31:47;;;;;;;1.20;1.10;;;18.10;58.00;;;;;;4954495;28;20482;-82
2021/12/01 11:34:16;;;;;;;2.40;0.90;;;18.10;57.80;;;;;;4954300;28;20453;-83
2021/12/01 11:36:45;;;;;;;0.87;0.80;;;18.10;57.80;;;;;;4954095;28;20490;-83
2021/12/01 11:39:17;;;;;;;1.53;1.10;;;18.10;57.90;;;;;;4953985;28;20463;-82
2021/12/01 11:41:47;;;;;;;1.00;1.00;;;18.10;57.80;;;;;;4954651;28;20477;-81
2021/12/01 11:44:15;;;;;;;1.07;0.90;;;18.10;57.80;;;;;;4954996;28;20507;-81
2021/12/01 11:46:43;;;;;;;1.77;1.10;;;18.10;57.80;;;;;;4955091;28;20545;-81
2021/12/01 11:49:12;;;;;;;1.00;0.90;;;18.10;57.80;;;;;;4954494;28;20458;-81
2021/12/01 11:51:45;;;;;;;0.83;0.83;;;18.10;57.90;;;;;;4953877;28;20538;-82
2021/12/01 11:54:16;;;;;;;0.90;0.90;;;18.10;57.90;;;;;;4954392;29;20483;-82
2021/12/01 11:56:53;;;;;;;1.10;0.80;;;18.10;58.00;;;;;;4954814;28;20455;-82
2021/12/01 11:59:24;;;;;;;1.00;0.90;;;18.10;58.00;;;;;;4954556;28;20481;-83
2021/12/01 12:01:56;;;;;;;2.57;1.00;;;18.10;57.90;;;;;;4953507;28;20515;-83
2021/12/01 12:04:42;;;;;;;1.00;0.90;;;18.10;58.00;;;;;;4953628;28;20532;-82
2021/12/01 12:07:12;;;;;;;1.10;1.00;;;18.10;57.90;;;;;;4952578;28;20448;-83
2021/12/01 12:10:10;;;;;;;3.60;0.90;;;18.10;57.90;;;;;;4954395;28;20521;-83
2021/12/01 12:12:59;;;;;;;1.17;0.90;;;18.20;58.10;;;;;;4954042;28;20525;-83
2021/12/01 12:15:50;;;;;;;3.00;1.27;;;18.20;57.80;;;;;;4953346;28;20490;-83
2021/12/01 12:18:47;;;;;;;1.00;0.97;;;18.20;57.60;;;;;;4950132;28;20563;-83
2021/12/01 12:21:17;;;;;;;1.20;0.87;;;18.20;57.60;;;;;;4954332;28;20488;-83
2021/12/01 12:23:45;;;;;;;2.10;1.10;;;18.20;57.50;;;;;;4953530;28;20537;-83
2021/12/01 12:26:13;;;;;;;2.20;1.00;;;18.10;57.40;;;;;;4955456;28;20486;-83
2021/12/01 12:28:43;;;;;;;1.57;1.00;;;18.10;57.60;;;;;;4953234;28;20481;-82
2021/12/01 12:31:26;;;;;;;1.60;1.13;;;18.20;57.70;;;;;;4954395;28;20454;-82
2021/12/01 12:33:56;;;;;;;2.53;1.00;;;18.20;57.60;;;;;;4953154;28;20466;-82
2021/12/01 12:36:39;;;;;;;1.43;1.10;;;18.20;57.60;;;;;;4953829;28;20482;-82
2021/12/01 12:39:08;;;;;;;4.10;1.23;;;18.20;57.60;;;;;;4952187;28;21089;-82
2021/12/01 12:42:09;;;;;;;2.17;1.13;;;18.20;57.50;;;;;;4953899;29;20455;-82
2021/12/01 12:44:39;;;;;;;2.53;1.10;;;18.20;57.50;;;;;;4892792;29;20558;-84
2021/12/01 12:47:28;;;;;;;4.73;1.30;;;18.20;58.00;;;;;;4947985;28;20506;-82
2021/12/01 12:49:59;;;;;;;2.70;1.23;;;18.20;57.50;;;;;;4953177;28;20451;-82
2021/12/01 12:52:32;;;;;;;2.90;1.03;;;18.20;57.40;;;;;;4952458;28;20484;-82
2021/12/01 12:55:00;;;;;;;2.83;1.30;;;18.20;57.40;;;;;;4953464;28;20466;-82
2021/12/01 12:57:47;;;;;;;1.53;1.10;;;18.30;57.70;;;;;;4952432;28;20526;-82
2021/12/01 13:00:22;;;;;;;1.57;1.00;;;18.50;57.40;;;;;;4955998;28;20482;-83
2021/12/01 13:02:50;;;;;;;2.23;1.20;;;18.50;57.30;;;;;;4957010;28;21037;-83
2021/12/01 13:05:30;;;;;;;1.73;1.10;;;18.50;57.00;;;;;;4957553;28;20435;-83
2021/12/01 13:07:59;;;;;;;2.17;0.80;;;18.50;57.00;;;;;;4954561;28;21201;-83
2021/12/01 13:10:28;;;;;;;5.13;1.13;;;18.50;56.80;;;;;;4953904;28;20467;-85